sensor_id;sensor_type;location;lat;lon;timestamp;P1;durP1;ratioP1;P2;durP2;ratioP2
68921;SDS011;55959;51.244;5.724;2024-02-26T00:01:42;1.63;;;1.27;;
68921;SDS011;55959;51.244;5.724;2024-02-26T00:04:11;1.40;;;1.10;;
68921;SDS011;55959;51.244;5.724;2024-02-26T00:06:40;2.37;;;1.30;;
68921;SDS011;55959;51.244;5.724;2024-02-26T00:09:06;1.10;;;1.00;;
68921;SDS011;55959;51.244;5.724;2024-02-26T00:11:34;2.03;;;1.33;;
68921;SDS011;55959;51.244;5.724;2024-02-26T00:14:01;1.60;;;0.90;;
68921;SDS011;55959;51.244;5.724;2024-02-26T00:16:27;1.30;;;1.10;;
68921;SDS011;55959;51.244;5.724;2024-02-26T00:18:52;1.53;;;1.00;;
68921;SDS011;55959;51.244;5.724;2024-02-26T00:21:18;2.03;;;1.47;;
68921;SDS011;55959;51.244;5.724;2024-02-26T00:23:44;1.33;;;1.10;;
68921;SDS011;55959;51.244;5.724;2024-02-26T00:26:09;1.57;;;1.13;;
68921;SDS011;55959;51.244;5.724;2024-02-26T00:28:36;1.30;;;1.20;;
68921;SDS011;55959;51.244;5.724;2024-02-26T00:31:02;1.60;;;1.40;;
68921;SDS011;55959;51.244;5.724;2024-02-26T00:33:28;2.27;;;1.23;;
68921;SDS011;55959;51.244;5.724;2024-02-26T00:35:54;2.47;;;1.30;;
68921;SDS011;55959;51.244;5.724;2024-02-26T00:38:19;1.90;;;1.17;;
68921;SDS011;55959;51.244;5.724;2024-02-26T00:40:45;2.43;;;1.00;;
68921;SDS011;55959;51.244;5.724;2024-02-26T00:43:11;1.20;;;1.10;;
68921;SDS011;55959;51.244;5.724;2024-02-26T00:45:37;1.10;;;1.00;;
68921;SDS011;55959;51.244;5.724;2024-02-26T00:48:04;2.10;;;1.23;;
68921;SDS011;55959;51.244;5.724;2024-02-26T00:50:30;1.73;;;1.30;;
68921;SDS011;55959;51.244;5.724;2024-02-26T00:52:57;1.83;;;1.27;;
68921;SDS011;55959;51.244;5.724;2024-02-26T00:55:22;1.17;;;1.00;;
68921;SDS011;55959;51.244;5.724;2024-02-26T00:57:48;1.93;;;1.10;;
68921;SDS011;55959;51.244;5.724;2024-02-26T01:00:14;1.13;;;0.93;;
68921;SDS011;55959;51.244;5.724;2024-02-26T01:02:40;1.60;;;1.20;;
68921;SDS011;55959;51.244;5.724;2024-02-26T01:05:07;1.47;;;1.23;;
68921;SDS011;55959;51.244;5.724;2024-02-26T01:07:36;1.77;;;1.10;;
68921;SDS011;55959;51.244;5.724;2024-02-26T01:10:02;0.80;;;0.70;;
68921;SDS011;55959;51.244;5.724;2024-02-26T01:12:29;1.73;;;1.20;;
68921;SDS011;55959;51.244;5.724;2024-02-26T01:14:55;1.77;;;1.17;;
68921;SDS011;55959;51.244;5.724;2024-02-26T01:17:20;1.20;;;1.10;;
68921;SDS011;55959;51.244;5.724;2024-02-26T01:19:46;1.40;;;1.00;;
68921;SDS011;55959;51.244;5.724;2024-02-26T01:22:12;1.20;;;1.00;;
68921;SDS011;55959;51.244;5.724;2024-02-26T01:24:38;1.17;;;1.07;;
68921;SDS011;55959;51.244;5.724;2024-02-26T01:27:04;1.30;;;1.20;;
68921;SDS011;55959;51.244;5.724;2024-02-26T01:29:30;1.90;;;1.30;;
68921;SDS011;55959;51.244;5.724;2024-02-26T01:31:55;1.70;;;1.33;;
68921;SDS011;55959;51.244;5.724;2024-02-26T01:34:21;1.70;;;1.33;;
68921;SDS011;55959;51.244;5.724;2024-02-26T01:36:47;1.20;;;1.10;;
68921;SDS011;55959;51.244;5.724;2024-02-26T01:39:12;2.93;;;1.20;;
68921;SDS011;55959;51.244;5.724;2024-02-26T01:41:39;1.40;;;1.20;;
68921;SDS011;55959;51.244;5.724;2024-02-26T01:44:06;1.73;;;1.33;;
68921;SDS011;55959;51.244;5.724;2024-02-26T01:46:32;3.37;;;1.60;;
68921;SDS011;55959;51.244;5.724;2024-02-26T01:48:59;1.43;;;1.30;;
68921;SDS011;55959;51.244;5.724;2024-02-26T01:51:27;2.13;;;1.67;;
68921;SDS011;55959;51.244;5.724;2024-02-26T01:53:54;2.60;;;1.60;;
68921;SDS011;55959;51.244;5.724;2024-02-26T01:56:20;2.10;;;1.53;;
68921;SDS011;55959;51.244;5.724;2024-02-26T01:58:48;1.83;;;1.60;;
68921;SDS011;55959;51.244;5.724;2024-02-26T02:01:14;1.93;;;1.57;;
68921;SDS011;55959;51.244;5.724;2024-02-26T02:03:43;2.97;;;1.70;;
68921;SDS011;55959;51.244;5.724;2024-02-26T02:06:10;2.13;;;1.60;;
68921;SDS011;55959;51.244;5.724;2024-02-26T02:08:37;2.03;;;1.63;;
68921;SDS011;55959;51.244;5.724;2024-02-26T02:11:04;4.07;;;2.17;;
68921;SDS011;55959;51.244;5.724;2024-02-26T02:13:30;3.27;;;1.47;;
68921;SDS011;55959;51.244;5.724;2024-02-26T02:15:56;2.00;;;1.40;;
68921;SDS011;55959;51.244;5.724;2024-02-26T02:18:22;2.40;;;1.50;;
68921;SDS011;55959;51.244;5.724;2024-02-26T02:20:48;2.33;;;1.40;;
68921;SDS011;55959;51.244;5.724;2024-02-26T02:23:13;1.73;;;1.50;;
68921;SDS011;55959;51.244;5.724;2024-02-26T02:25:39;3.27;;;1.83;;
68921;SDS011;55959;51.244;5.724;2024-02-26T02:28:05;1.43;;;1.20;;
68921;SDS011;55959;51.244;5.724;2024-02-26T02:30:31;2.20;;;1.70;;
68921;SDS011;55959;51.244;5.724;2024-02-26T02:32:58;2.40;;;1.30;;
68921;SDS011;55959;51.244;5.724;2024-02-26T02:35:24;1.77;;;1.40;;
68921;SDS011;55959;51.244;5.724;2024-02-26T02:37:53;1.37;;;1.27;;
68921;SDS011;55959;51.244;5.724;2024-02-26T02:40:20;1.63;;;1.53;;
68921;SDS011;55959;51.244;5.724;2024-02-26T02:42:46;2.00;;;1.80;;
68921;SDS011;55959;51.244;5.724;2024-02-26T02:45:12;2.13;;;1.50;;
68921;SDS011;55959;51.244;5.724;2024-02-26T02:47:38;2.10;;;1.43;;
68921;SDS011;55959;51.244;5.724;2024-02-26T02:50:04;2.53;;;1.70;;
68921;SDS011;55959;51.244;5.724;2024-02-26T02:52:30;2.70;;;1.83;;
68921;SDS011;55959;51.244;5.724;2024-02-26T02:54:56;2.30;;;1.60;;
68921;SDS011;55959;51.244;5.724;2024-02-26T02:57:22;2.03;;;1.40;;
68921;SDS011;55959;51.244;5.724;2024-02-26T02:59:48;1.97;;;1.60;;
68921;SDS011;55959;51.244;5.724;2024-02-26T03:02:14;2.37;;;1.90;;
68921;SDS011;55959;51.244;5.724;2024-02-26T03:04:40;2.20;;;1.70;;
68921;SDS011;55959;51.244;5.724;2024-02-26T03:07:05;2.40;;;1.60;;
68921;SDS011;55959;51.244;5.724;2024-02-26T03:09:31;2.77;;;1.97;;
68921;SDS011;55959;51.244;5.724;2024-02-26T03:11:57;2.07;;;1.80;;
68921;SDS011;55959;51.244;5.724;2024-02-26T03:14:23;3.60;;;2.43;;
68921;SDS011;55959;51.244;5.724;2024-02-26T03:16:48;4.20;;;2.27;;
68921;SDS011;55959;51.244;5.724;2024-02-26T03:19:15;3.30;;;2.50;;
68921;SDS011;55959;51.244;5.724;2024-02-26T03:21:43;3.30;;;2.60;;
68921;SDS011;55959;51.244;5.724;2024-02-26T03:24:09;3.53;;;2.10;;
68921;SDS011;55959;51.244;5.724;2024-02-26T03:26:36;3.43;;;2.40;;
68921;SDS011;55959;51.244;5.724;2024-02-26T03:29:02;3.53;;;2.40;;
68921;SDS011;55959;51.244;5.724;2024-02-26T03:31:28;3.33;;;2.10;;
68921;SDS011;55959;51.244;5.724;2024-02-26T03:33:54;4.27;;;2.30;;
68921;SDS011;55959;51.244;5.724;2024-02-26T03:36:19;4.30;;;2.33;;
68921;SDS011;55959;51.244;5.724;2024-02-26T03:38:46;3.47;;;2.20;;
68921;SDS011;55959;51.244;5.724;2024-02-26T03:41:13;4.73;;;2.63;;
68921;SDS011;55959;51.244;5.724;2024-02-26T03:43:39;4.77;;;2.87;;
68921;SDS011;55959;51.244;5.724;2024-02-26T03:46:08;4.10;;;2.37;;
68921;SDS011;55959;51.244;5.724;2024-02-26T03:48:36;5.50;;;2.67;;
68921;SDS011;55959;51.244;5.724;2024-02-26T03:51:02;3.03;;;2.37;;
68921;SDS011;55959;51.244;5.724;2024-02-26T03:53:29;3.93;;;2.00;;
68921;SDS011;55959;51.244;5.724;2024-02-26T03:55:54;2.60;;;2.10;;
68921;SDS011;55959;51.244;5.724;2024-02-26T03:58:20;3.77;;;2.33;;
68921;SDS011;55959;51.244;5.724;2024-02-26T04:00:46;3.37;;;2.40;;
68921;SDS011;55959;51.244;5.724;2024-02-26T04:03:13;5.50;;;2.60;;
68921;SDS011;55959;51.244;5.724;2024-02-26T04:05:39;3.47;;;2.23;;
68921;SDS011;55959;51.244;5.724;2024-02-26T04:08:05;3.77;;;2.03;;
68921;SDS011;55959;51.244;5.724;2024-02-26T04:10:32;4.87;;;2.50;;
68921;SDS011;55959;51.244;5.724;2024-02-26T04:13:04;3.33;;;2.40;;
68921;SDS011;55959;51.244;5.724;2024-02-26T04:15:30;4.47;;;2.53;;
68921;SDS011;55959;51.244;5.724;2024-02-26T04:17:57;5.17;;;2.27;;
68921;SDS011;55959;51.244;5.724;2024-02-26T04:20:23;2.60;;;2.20;;
68921;SDS011;55959;51.244;5.724;2024-02-26T04:22:49;3.50;;;2.60;;
68921;SDS011;55959;51.244;5.724;2024-02-26T04:25:14;2.93;;;2.13;;
68921;SDS011;55959;51.244;5.724;2024-02-26T04:27:40;3.40;;;2.43;;
68921;SDS011;55959;51.244;5.724;2024-02-26T04:30:07;4.00;;;2.10;;
68921;SDS011;55959;51.244;5.724;2024-02-26T04:32:33;2.90;;;2.20;;
68921;SDS011;55959;51.244;5.724;2024-02-26T04:34:59;2.30;;;2.07;;
68921;SDS011;55959;51.244;5.724;2024-02-26T04:37:27;3.87;;;3.10;;
68921;SDS011;55959;51.244;5.724;2024-02-26T04:39:59;3.33;;;2.27;;
68921;SDS011;55959;51.244;5.724;2024-02-26T04:42:25;2.50;;;2.30;;
68921;SDS011;55959;51.244;5.724;2024-02-26T04:44:52;2.80;;;2.20;;
68921;SDS011;55959;51.244;5.724;2024-02-26T04:47:19;3.23;;;2.60;;
68921;SDS011;55959;51.244;5.724;2024-02-26T04:49:47;3.30;;;2.13;;
68921;SDS011;55959;51.244;5.724;2024-02-26T04:52:16;3.00;;;2.33;;
68921;SDS011;55959;51.244;5.724;2024-02-26T04:54:43;3.27;;;2.23;;
68921;SDS011;55959;51.244;5.724;2024-02-26T04:57:09;2.53;;;2.33;;
68921;SDS011;55959;51.244;5.724;2024-02-26T04:59:35;2.60;;;2.13;;
68921;SDS011;55959;51.244;5.724;2024-02-26T05:02:01;2.10;;;1.90;;
68921;SDS011;55959;51.244;5.724;2024-02-26T05:04:26;2.53;;;2.17;;
68921;SDS011;55959;51.244;5.724;2024-02-26T05:06:52;2.77;;;2.20;;
68921;SDS011;55959;51.244;5.724;2024-02-26T05:09:18;2.73;;;2.17;;
68921;SDS011;55959;51.244;5.724;2024-02-26T05:11:44;2.90;;;2.30;;
68921;SDS011;55959;51.244;5.724;2024-02-26T05:14:10;2.63;;;2.43;;
68921;SDS011;55959;51.244;5.724;2024-02-26T05:16:36;2.37;;;2.10;;
68921;SDS011;55959;51.244;5.724;2024-02-26T05:19:02;2.40;;;2.17;;
68921;SDS011;55959;51.244;5.724;2024-02-26T05:21:28;2.33;;;2.00;;
68921;SDS011;55959;51.244;5.724;2024-02-26T05:23:54;2.17;;;1.97;;
68921;SDS011;55959;51.244;5.724;2024-02-26T05:26:23;2.17;;;1.63;;
68921;SDS011;55959;51.244;5.724;2024-02-26T05:28:49;2.37;;;2.03;;
68921;SDS011;55959;51.244;5.724;2024-02-26T05:31:15;1.83;;;1.73;;
68921;SDS011;55959;51.244;5.724;2024-02-26T05:33:42;2.33;;;2.13;;
68921;SDS011;55959;51.244;5.724;2024-02-26T05:36:07;3.17;;;2.17;;
68921;SDS011;55959;51.244;5.724;2024-02-26T05:38:33;3.70;;;1.87;;
68921;SDS011;55959;51.244;5.724;2024-02-26T05:40:59;2.53;;;1.97;;
68921;SDS011;55959;51.244;5.724;2024-02-26T05:43:28;3.10;;;2.30;;
68921;SDS011;55959;51.244;5.724;2024-02-26T05:45:54;2.37;;;1.80;;
68921;SDS011;55959;51.244;5.724;2024-02-26T05:48:20;2.30;;;2.10;;
68921;SDS011;55959;51.244;5.724;2024-02-26T05:50:46;3.40;;;1.90;;
68921;SDS011;55959;51.244;5.724;2024-02-26T05:53:12;2.03;;;1.80;;
68921;SDS011;55959;51.244;5.724;2024-02-26T05:55:38;2.70;;;2.20;;
68921;SDS011;55959;51.244;5.724;2024-02-26T05:58:04;2.23;;;2.00;;
68921;SDS011;55959;51.244;5.724;2024-02-26T06:00:30;2.13;;;1.80;;
68921;SDS011;55959;51.244;5.724;2024-02-26T06:02:56;2.17;;;1.97;;
68921;SDS011;55959;51.244;5.724;2024-02-26T06:05:21;2.00;;;1.90;;
68921;SDS011;55959;51.244;5.724;2024-02-26T06:07:47;2.23;;;2.03;;
68921;SDS011;55959;51.244;5.724;2024-02-26T06:10:13;2.20;;;2.00;;
68921;SDS011;55959;51.244;5.724;2024-02-26T06:12:39;2.07;;;1.87;;
68921;SDS011;55959;51.244;5.724;2024-02-26T06:15:05;2.33;;;2.13;;
68921;SDS011;55959;51.244;5.724;2024-02-26T06:17:32;2.03;;;1.93;;
68921;SDS011;55959;51.244;5.724;2024-02-26T06:19:58;2.47;;;2.20;;
68921;SDS011;55959;51.244;5.724;2024-02-26T06:22:24;2.10;;;1.90;;
68921;SDS011;55959;51.244;5.724;2024-02-26T06:24:50;2.27;;;2.00;;
68921;SDS011;55959;51.244;5.724;2024-02-26T06:27:16;2.30;;;1.83;;
68921;SDS011;55959;51.244;5.724;2024-02-26T06:29:42;1.90;;;1.70;;
68921;SDS011;55959;51.244;5.724;2024-02-26T06:32:08;2.37;;;1.87;;
68921;SDS011;55959;51.244;5.724;2024-02-26T06:34:34;2.60;;;2.10;;
68921;SDS011;55959;51.244;5.724;2024-02-26T06:37:00;2.30;;;2.10;;
68921;SDS011;55959;51.244;5.724;2024-02-26T06:39:25;2.67;;;1.90;;
68921;SDS011;55959;51.244;5.724;2024-02-26T06:41:51;3.97;;;2.20;;
68921;SDS011;55959;51.244;5.724;2024-02-26T06:44:24;2.43;;;2.23;;
68921;SDS011;55959;51.244;5.724;2024-02-26T06:46:51;3.23;;;2.27;;
68921;SDS011;55959;51.244;5.724;2024-02-26T06:49:16;2.10;;;1.90;;
68921;SDS011;55959;51.244;5.724;2024-02-26T06:51:42;2.77;;;2.40;;
68921;SDS011;55959;51.244;5.724;2024-02-26T06:54:08;2.10;;;1.90;;
68921;SDS011;55959;51.244;5.724;2024-02-26T06:56:34;2.07;;;1.87;;
68921;SDS011;55959;51.244;5.724;2024-02-26T06:59:00;2.73;;;2.33;;
68921;SDS011;55959;51.244;5.724;2024-02-26T07:01:26;2.10;;;1.90;;
68921;SDS011;55959;51.244;5.724;2024-02-26T07:03:51;1.93;;;1.80;;
68921;SDS011;55959;51.244;5.724;2024-02-26T07:06:17;2.33;;;2.07;;
68921;SDS011;55959;51.244;5.724;2024-02-26T07:08:43;2.17;;;1.83;;
68921;SDS011;55959;51.244;5.724;2024-02-26T07:11:09;2.73;;;2.07;;
68921;SDS011;55959;51.244;5.724;2024-02-26T07:13:36;5.23;;;2.43;;
68921;SDS011;55959;51.244;5.724;2024-02-26T07:16:02;2.33;;;2.07;;
68921;SDS011;55959;51.244;5.724;2024-02-26T07:18:29;2.70;;;2.13;;
68921;SDS011;55959;51.244;5.724;2024-02-26T07:20:54;2.00;;;1.77;;
68921;SDS011;55959;51.244;5.724;2024-02-26T07:23:21;2.63;;;2.13;;
68921;SDS011;55959;51.244;5.724;2024-02-26T07:25:46;2.90;;;2.10;;
68921;SDS011;55959;51.244;5.724;2024-02-26T07:28:14;2.00;;;1.80;;
68921;SDS011;55959;51.244;5.724;2024-02-26T07:30:39;2.47;;;1.93;;
68921;SDS011;55959;51.244;5.724;2024-02-26T07:33:05;2.30;;;2.00;;
68921;SDS011;55959;51.244;5.724;2024-02-26T07:35:32;3.00;;;1.77;;
68921;SDS011;55959;51.244;5.724;2024-02-26T07:37:58;2.67;;;2.30;;
68921;SDS011;55959;51.244;5.724;2024-02-26T07:40:24;2.93;;;2.33;;
68921;SDS011;55959;51.244;5.724;2024-02-26T07:42:50;2.03;;;1.83;;
68921;SDS011;55959;51.244;5.724;2024-02-26T07:45:16;2.70;;;2.20;;
68921;SDS011;55959;51.244;5.724;2024-02-26T07:47:44;2.20;;;1.47;;
68921;SDS011;55959;51.244;5.724;2024-02-26T07:50:11;2.80;;;2.10;;
68921;SDS011;55959;51.244;5.724;2024-02-26T07:52:37;2.80;;;2.00;;
68921;SDS011;55959;51.244;5.724;2024-02-26T07:55:04;2.07;;;1.80;;
68921;SDS011;55959;51.244;5.724;2024-02-26T07:57:31;2.23;;;1.50;;
68921;SDS011;55959;51.244;5.724;2024-02-26T08:00:01;2.43;;;1.80;;
68921;SDS011;55959;51.244;5.724;2024-02-26T08:02:28;2.17;;;1.87;;
68921;SDS011;55959;51.244;5.724;2024-02-26T08:04:54;2.20;;;1.60;;
68921;SDS011;55959;51.244;5.724;2024-02-26T08:07:20;2.47;;;2.27;;
68921;SDS011;55959;51.244;5.724;2024-02-26T08:09:46;2.40;;;2.17;;
68921;SDS011;55959;51.244;5.724;2024-02-26T08:12:12;2.20;;;1.60;;
68921;SDS011;55959;51.244;5.724;2024-02-26T08:14:38;2.90;;;2.00;;
68921;SDS011;55959;51.244;5.724;2024-02-26T08:17:04;2.33;;;2.13;;
68921;SDS011;55959;51.244;5.724;2024-02-26T08:19:30;2.20;;;2.00;;
68921;SDS011;55959;51.244;5.724;2024-02-26T08:21:56;2.30;;;2.10;;
68921;SDS011;55959;51.244;5.724;2024-02-26T08:24:22;3.20;;;2.33;;
68921;SDS011;55959;51.244;5.724;2024-02-26T08:26:48;2.27;;;2.00;;
68921;SDS011;55959;51.244;5.724;2024-02-26T08:29:14;2.40;;;1.80;;
68921;SDS011;55959;51.244;5.724;2024-02-26T08:31:39;2.10;;;1.90;;
68921;SDS011;55959;51.244;5.724;2024-02-26T08:34:06;2.27;;;2.03;;
68921;SDS011;55959;51.244;5.724;2024-02-26T08:36:32;2.67;;;1.80;;
68921;SDS011;55959;51.244;5.724;2024-02-26T08:38:59;2.00;;;1.90;;
68921;SDS011;55959;51.244;5.724;2024-02-26T08:41:25;2.10;;;1.90;;
68921;SDS011;55959;51.244;5.724;2024-02-26T08:43:51;2.10;;;1.90;;
68921;SDS011;55959;51.244;5.724;2024-02-26T08:46:17;2.63;;;1.97;;
68921;SDS011;55959;51.244;5.724;2024-02-26T08:48:42;2.63;;;1.80;;
68921;SDS011;55959;51.244;5.724;2024-02-26T08:51:08;2.23;;;2.00;;
68921;SDS011;55959;51.244;5.724;2024-02-26T08:53:38;2.30;;;2.10;;
68921;SDS011;55959;51.244;5.724;2024-02-26T08:56:04;2.03;;;1.87;;
68921;SDS011;55959;51.244;5.724;2024-02-26T08:58:30;2.77;;;2.57;;
68921;SDS011;55959;51.244;5.724;2024-02-26T09:00:56;2.80;;;2.43;;
68921;SDS011;55959;51.244;5.724;2024-02-26T09:03:22;2.60;;;2.40;;
68921;SDS011;55959;51.244;5.724;2024-02-26T09:05:48;3.53;;;2.97;;
68921;SDS011;55959;51.244;5.724;2024-02-26T09:08:14;3.17;;;2.87;;
68921;SDS011;55959;51.244;5.724;2024-02-26T09:10:41;3.00;;;2.70;;
68921;SDS011;55959;51.244;5.724;2024-02-26T09:13:07;3.67;;;2.90;;
68921;SDS011;55959;51.244;5.724;2024-02-26T09:15:33;3.13;;;2.87;;
68921;SDS011;55959;51.244;5.724;2024-02-26T09:18:02;3.80;;;3.20;;
68921;SDS011;55959;51.244;5.724;2024-02-26T09:20:28;2.97;;;2.77;;
68921;SDS011;55959;51.244;5.724;2024-02-26T09:22:54;2.93;;;2.63;;
68921;SDS011;55959;51.244;5.724;2024-02-26T09:25:20;3.33;;;2.67;;
68921;SDS011;55959;51.244;5.724;2024-02-26T09:27:46;4.07;;;2.97;;
68921;SDS011;55959;51.244;5.724;2024-02-26T09:30:12;3.10;;;2.80;;
68921;SDS011;55959;51.244;5.724;2024-02-26T09:32:39;3.10;;;2.83;;
68921;SDS011;55959;51.244;5.724;2024-02-26T09:35:05;2.60;;;2.40;;
68921;SDS011;55959;51.244;5.724;2024-02-26T09:37:32;2.70;;;2.50;;
68921;SDS011;55959;51.244;5.724;2024-02-26T09:39:59;2.70;;;2.50;;
68921;SDS011;55959;51.244;5.724;2024-02-26T09:42:25;3.00;;;2.67;;
68921;SDS011;55959;51.244;5.724;2024-02-26T09:44:55;2.40;;;2.20;;
68921;SDS011;55959;51.244;5.724;2024-02-26T09:47:24;2.80;;;2.50;;
68921;SDS011;55959;51.244;5.724;2024-02-26T09:49:52;2.90;;;2.57;;
68921;SDS011;55959;51.244;5.724;2024-02-26T09:52:21;2.87;;;2.60;;
68921;SDS011;55959;51.244;5.724;2024-02-26T09:54:49;2.57;;;2.37;;
68921;SDS011;55959;51.244;5.724;2024-02-26T09:57:15;2.40;;;2.20;;
68921;SDS011;55959;51.244;5.724;2024-02-26T09:59:44;2.50;;;2.30;;
68921;SDS011;55959;51.244;5.724;2024-02-26T10:02:12;2.93;;;2.17;;
68921;SDS011;55959;51.244;5.724;2024-02-26T10:04:40;2.23;;;2.03;;
68921;SDS011;55959;51.244;5.724;2024-02-26T10:07:11;2.03;;;1.93;;
68921;SDS011;55959;51.244;5.724;2024-02-26T10:09:38;2.73;;;2.20;;
68921;SDS011;55959;51.244;5.724;2024-02-26T10:12:05;1.93;;;1.83;;
68921;SDS011;55959;51.244;5.724;2024-02-26T10:14:35;2.17;;;1.97;;
68921;SDS011;55959;51.244;5.724;2024-02-26T10:17:01;3.13;;;2.10;;
68921;SDS011;55959;51.244;5.724;2024-02-26T10:19:28;2.37;;;2.17;;
68921;SDS011;55959;51.244;5.724;2024-02-26T10:21:58;2.00;;;1.90;;
68921;SDS011;55959;51.244;5.724;2024-02-26T10:24:29;3.03;;;2.77;;
68921;SDS011;55959;51.244;5.724;2024-02-26T10:26:55;3.67;;;2.43;;
68921;SDS011;55959;51.244;5.724;2024-02-26T10:29:23;2.63;;;2.43;;
68921;SDS011;55959;51.244;5.724;2024-02-26T10:31:50;2.20;;;2.00;;
68921;SDS011;55959;51.244;5.724;2024-02-26T10:34:17;2.47;;;2.27;;
68921;SDS011;55959;51.244;5.724;2024-02-26T10:36:44;2.10;;;1.90;;
68921;SDS011;55959;51.244;5.724;2024-02-26T10:39:11;2.37;;;2.17;;
68921;SDS011;55959;51.244;5.724;2024-02-26T10:41:38;2.50;;;2.30;;
68921;SDS011;55959;51.244;5.724;2024-02-26T10:44:08;1.93;;;1.80;;
68921;SDS011;55959;51.244;5.724;2024-02-26T10:46:36;2.70;;;2.30;;
68921;SDS011;55959;51.244;5.724;2024-02-26T10:49:02;2.60;;;2.40;;
68921;SDS011;55959;51.244;5.724;2024-02-26T10:51:31;2.50;;;2.30;;
68921;SDS011;55959;51.244;5.724;2024-02-26T10:53:58;2.27;;;2.07;;
68921;SDS011;55959;51.244;5.724;2024-02-26T10:56:28;2.20;;;2.00;;
68921;SDS011;55959;51.244;5.724;2024-02-26T10:58:54;2.30;;;1.90;;
68921;SDS011;55959;51.244;5.724;2024-02-26T11:01:21;2.40;;;2.20;;
68921;SDS011;55959;51.244;5.724;2024-02-26T11:03:50;2.20;;;1.90;;
68921;SDS011;55959;51.244;5.724;2024-02-26T11:06:24;2.10;;;1.90;;
68921;SDS011;55959;51.244;5.724;2024-02-26T11:08:51;2.20;;;2.00;;
68921;SDS011;55959;51.244;5.724;2024-02-26T11:11:18;2.30;;;2.10;;
68921;SDS011;55959;51.244;5.724;2024-02-26T11:13:46;2.13;;;1.93;;
68921;SDS011;55959;51.244;5.724;2024-02-26T11:16:19;2.47;;;1.97;;
68921;SDS011;55959;51.244;5.724;2024-02-26T11:18:50;2.83;;;2.60;;
68921;SDS011;55959;51.244;5.724;2024-02-26T11:21:20;1.97;;;1.87;;
68921;SDS011;55959;51.244;5.724;2024-02-26T11:24:03;2.47;;;2.30;;
68921;SDS011;55959;51.244;5.724;2024-02-26T11:26:32;3.23;;;2.40;;
68921;SDS011;55959;51.244;5.724;2024-02-26T11:29:02;6.37;;;2.60;;
68921;SDS011;55959;51.244;5.724;2024-02-26T11:31:30;2.33;;;2.07;;
68921;SDS011;55959;51.244;5.724;2024-02-26T11:33:56;2.10;;;1.90;;
68921;SDS011;55959;51.244;5.724;2024-02-26T11:36:23;2.90;;;2.33;;
68921;SDS011;55959;51.244;5.724;2024-02-26T11:38:49;2.63;;;2.43;;
68921;SDS011;55959;51.244;5.724;2024-02-26T11:41:17;2.80;;;2.60;;
68921;SDS011;55959;51.244;5.724;2024-02-26T11:43:53;2.90;;;2.60;;
68921;SDS011;55959;51.244;5.724;2024-02-26T11:51:51;2.80;;;2.60;;
68921;SDS011;55959;51.244;5.724;2024-02-26T11:59:45;6.13;;;5.33;;
68921;SDS011;55959;51.244;5.724;2024-02-26T12:02:11;4.37;;;3.13;;
68921;SDS011;55959;51.244;5.724;2024-02-26T12:04:38;4.00;;;3.70;;
68921;SDS011;55959;51.244;5.724;2024-02-26T12:07:04;4.77;;;3.60;;
68921;SDS011;55959;51.244;5.724;2024-02-26T12:09:34;3.30;;;3.00;;
68921;SDS011;55959;51.244;5.724;2024-02-26T12:12:02;4.13;;;3.10;;
68921;SDS011;55959;51.244;5.724;2024-02-26T12:14:32;3.40;;;3.10;;
68921;SDS011;55959;51.244;5.724;2024-02-26T12:17:00;4.67;;;3.60;;
68921;SDS011;55959;51.244;5.724;2024-02-26T12:19:26;3.43;;;3.13;;
68921;SDS011;55959;51.244;5.724;2024-02-26T12:21:52;2.90;;;2.70;;
68921;SDS011;55959;51.244;5.724;2024-02-26T12:24:21;3.63;;;3.30;;
68921;SDS011;55959;51.244;5.724;2024-02-26T12:26:47;3.77;;;3.23;;
68921;SDS011;55959;51.244;5.724;2024-02-26T12:29:13;4.00;;;3.70;;
68921;SDS011;55959;51.244;5.724;2024-02-26T12:31:39;3.40;;;3.10;;
68921;SDS011;55959;51.244;5.724;2024-02-26T12:34:06;3.30;;;2.93;;
68921;SDS011;55959;51.244;5.724;2024-02-26T12:36:34;4.27;;;3.20;;
68921;SDS011;55959;51.244;5.724;2024-02-26T12:39:01;3.87;;;3.43;;
68921;SDS011;55959;51.244;5.724;2024-02-26T12:41:28;3.83;;;3.50;;
68921;SDS011;55959;51.244;5.724;2024-02-26T12:43:57;3.97;;;3.57;;
68921;SDS011;55959;51.244;5.724;2024-02-26T12:46:23;3.63;;;3.33;;
68921;SDS011;55959;51.244;5.724;2024-02-26T12:48:49;3.40;;;3.10;;
68921;SDS011;55959;51.244;5.724;2024-02-26T12:51:15;4.13;;;3.73;;
68921;SDS011;55959;51.244;5.724;2024-02-26T12:53:43;4.00;;;3.70;;
68921;SDS011;55959;51.244;5.724;2024-02-26T12:56:11;4.90;;;3.87;;
68921;SDS011;55959;51.244;5.724;2024-02-26T12:58:39;4.30;;;3.80;;
68921;SDS011;55959;51.244;5.724;2024-02-26T13:01:06;3.90;;;3.50;;
68921;SDS011;55959;51.244;5.724;2024-02-26T13:03:40;5.30;;;4.47;;
68921;SDS011;55959;51.244;5.724;2024-02-26T13:06:06;4.07;;;3.67;;
68921;SDS011;55959;51.244;5.724;2024-02-26T13:08:32;4.60;;;4.20;;
68921;SDS011;55959;51.244;5.724;2024-02-26T13:10:58;4.50;;;4.10;;
68921;SDS011;55959;51.244;5.724;2024-02-26T13:13:25;4.33;;;3.93;;
68921;SDS011;55959;51.244;5.724;2024-02-26T13:16:00;4.43;;;4.00;;
68921;SDS011;55959;51.244;5.724;2024-02-26T13:18:31;4.67;;;4.27;;
68921;SDS011;55959;51.244;5.724;2024-02-26T13:21:10;4.90;;;4.40;;
68921;SDS011;55959;51.244;5.724;2024-02-26T13:23:40;4.97;;;4.57;;
68921;SDS011;55959;51.244;5.724;2024-02-26T13:26:06;4.70;;;4.20;;
68921;SDS011;55959;51.244;5.724;2024-02-26T13:28:33;5.60;;;5.10;;
68921;SDS011;55959;51.244;5.724;2024-02-26T13:31:00;5.97;;;5.37;;
68921;SDS011;55959;51.244;5.724;2024-02-26T13:33:28;5.37;;;4.87;;
68921;SDS011;55959;51.244;5.724;2024-02-26T13:35:55;5.43;;;4.93;;
68921;SDS011;55959;51.244;5.724;2024-02-26T13:38:22;5.57;;;5.00;;
68921;SDS011;55959;51.244;5.724;2024-02-26T13:40:49;5.40;;;4.90;;
68921;SDS011;55959;51.244;5.724;2024-02-26T13:43:16;5.43;;;4.93;;
68921;SDS011;55959;51.244;5.724;2024-02-26T13:45:42;5.87;;;5.30;;
68921;SDS011;55959;51.244;5.724;2024-02-26T13:48:10;5.30;;;4.77;;
68921;SDS011;55959;51.244;5.724;2024-02-26T13:50:36;5.97;;;5.37;;
68921;SDS011;55959;51.244;5.724;2024-02-26T13:53:08;4.83;;;4.43;;
68921;SDS011;55959;51.244;5.724;2024-02-26T13:55:34;5.23;;;4.73;;
68921;SDS011;55959;51.244;5.724;2024-02-26T13:58:00;5.13;;;4.63;;
68921;SDS011;55959;51.244;5.724;2024-02-26T14:00:27;5.40;;;4.90;;
68921;SDS011;55959;51.244;5.724;2024-02-26T14:02:56;5.10;;;4.60;;
68921;SDS011;55959;51.244;5.724;2024-02-26T14:05:23;5.50;;;5.00;;
68921;SDS011;55959;51.244;5.724;2024-02-26T14:07:49;6.00;;;4.60;;
68921;SDS011;55959;51.244;5.724;2024-02-26T14:10:14;5.00;;;4.47;;
68921;SDS011;55959;51.244;5.724;2024-02-26T14:12:41;6.17;;;5.57;;
68921;SDS011;55959;51.244;5.724;2024-02-26T14:15:07;6.07;;;5.47;;
68921;SDS011;55959;51.244;5.724;2024-02-26T14:17:34;5.90;;;5.30;;
68921;SDS011;55959;51.244;5.724;2024-02-26T14:20:00;5.47;;;4.97;;
68921;SDS011;55959;51.244;5.724;2024-02-26T14:22:27;5.93;;;5.17;;
68921;SDS011;55959;51.244;5.724;2024-02-26T14:24:53;5.97;;;5.17;;
68921;SDS011;55959;51.244;5.724;2024-02-26T14:27:19;8.47;;;6.20;;
68921;SDS011;55959;51.244;5.724;2024-02-26T14:29:47;7.63;;;5.87;;
68921;SDS011;55959;51.244;5.724;2024-02-26T14:32:14;7.80;;;6.03;;
68921;SDS011;55959;51.244;5.724;2024-02-26T14:34:39;6.60;;;5.87;;
68921;SDS011;55959;51.244;5.724;2024-02-26T14:37:06;7.13;;;6.20;;
68921;SDS011;55959;51.244;5.724;2024-02-26T14:39:32;9.10;;;6.67;;
68921;SDS011;55959;51.244;5.724;2024-02-26T14:41:58;7.17;;;6.47;;
68921;SDS011;55959;51.244;5.724;2024-02-26T14:44:25;6.93;;;6.23;;
68921;SDS011;55959;51.244;5.724;2024-02-26T14:46:51;7.43;;;6.57;;
68921;SDS011;55959;51.244;5.724;2024-02-26T14:49:16;7.60;;;6.33;;
68921;SDS011;55959;51.244;5.724;2024-02-26T14:51:42;7.57;;;6.67;;
68921;SDS011;55959;51.244;5.724;2024-02-26T14:54:12;8.50;;;7.20;;
68921;SDS011;55959;51.244;5.724;2024-02-26T14:56:39;8.17;;;7.20;;